Etusivu
METAR-TAF:

METAR-TAF

Lentoasemat :

Air Force Base Overberg

Bredasdorp, Etelä-Afrikka

Leveyspiiri: 34-33-17S, Pituuspiiri: 20-15-02E, korkeus merenpinnasta: 16 m

Tämänhetkinen sää

Tämä raportti tehtiin 53 minuuttia sitten, kello 05.00 UTC
Tuuli 5 kn luoteesta
Lämpötila 21°C
Kosteus 64%
Ilmanpaine 1013 hPa

METAR: FAOB 190500Z AUTO 31005KT //// // ////// 21/14 Q1013

Aika: 07:53 (05:53 UTC)


TAF: puuttuu

Säähavainnot ja -ennusteet yli 4000 lentoasemalta (METAR- ja TAF-raportit).

Käytössä olevat sääasemat on merkitty karttaan keltaisilla ja punaisilla pisteillä.

Aseta hiiri pisteen päälle nähdäksesi sääaseman nimen.

Klikkaa sitten nähdäksesi säähavainnot ja -ennusteet.

Kartan vaihtaminen: klikkaa mustalla rastilla varustettuja vihreitä pisteitä, niin voit zoomata sisään; viivalla varustettua vihreää pistettä, niin voit zoomata ulos tai vihreitä nuolia, niin pääset viereisille kartoille.


METAR-TAF: